createdAt,value
2018-09-26T00:02:16.702Z,12.33
2018-09-26T00:04:47.867Z,12.32
2018-09-26T00:07:16.030Z,12.28
2018-09-26T00:09:44.216Z,12.22
2018-09-26T00:12:12.426Z,12.16
2018-09-26T00:14:40.599Z,12.14
2018-09-26T00:17:08.799Z,12.11
2018-09-26T00:19:36.970Z,12.11
2018-09-26T00:22:05.182Z,12.12
2018-09-26T00:24:33.361Z,12.12
2018-09-26T00:27:01.553Z,12.08
2018-09-26T00:29:29.703Z,12.06
2018-09-26T00:31:57.856Z,12.02
2018-09-26T00:34:26.032Z,11.96
2018-09-26T00:36:54.226Z,11.96
2018-09-26T00:39:22.462Z,12.00
2018-09-26T00:41:50.658Z,12.01
2018-09-26T00:44:18.832Z,12.01
2018-09-26T00:46:47.002Z,12.03
2018-09-26T00:49:15.180Z,12.01
2018-09-26T00:51:43.371Z,12.00
2018-09-26T00:54:11.536Z,11.94
2018-09-26T00:56:39.695Z,11.90
2018-09-26T00:59:07.877Z,11.84
2018-09-26T01:01:36.034Z,11.79
2018-09-26T01:04:04.220Z,11.75
2018-09-26T01:06:32.378Z,11.72
2018-09-26T01:09:00.555Z,11.70
2018-09-26T01:11:28.740Z,11.69
2018-09-26T01:13:56.946Z,11.69
2018-09-26T01:16:25.116Z,11.69
2018-09-26T01:18:53.308Z,11.70
2018-09-26T01:21:21.498Z,11.70
2018-09-26T01:23:49.667Z,11.70
2018-09-26T01:26:17.883Z,11.70
2018-09-26T01:28:46.051Z,11.70
2018-09-26T01:31:14.304Z,11.69
2018-09-26T01:33:42.474Z,11.70
2018-09-26T01:36:10.667Z,11.71
2018-09-26T01:38:38.834Z,11.70
2018-09-26T01:41:07.024Z,11.70
2018-09-26T01:43:35.191Z,11.69
2018-09-26T01:46:03.395Z,11.70
2018-09-26T01:48:31.564Z,11.69
2018-09-26T01:50:59.739Z,11.68
2018-09-26T01:53:27.932Z,11.67
2018-09-26T01:55:56.130Z,11.65
2018-09-26T01:58:24.345Z,11.64
2018-09-26T02:00:52.519Z,11.63
2018-09-26T02:03:20.696Z,11.62
2018-09-26T02:05:48.891Z,11.60
2018-09-26T02:08:17.083Z,11.63
2018-09-26T02:10:45.270Z,11.60
2018-09-26T02:13:13.444Z,11.57
2018-09-26T02:15:41.606Z,11.55
2018-09-26T02:18:09.762Z,11.55
2018-09-26T02:20:37.938Z,11.57
2018-09-26T02:23:06.179Z,11.57
2018-09-26T02:25:34.347Z,11.56
2018-09-26T02:28:02.524Z,11.54
2018-09-26T02:30:30.683Z,11.49
2018-09-26T02:32:58.884Z,11.44
2018-09-26T02:35:27.119Z,11.38
2018-09-26T02:37:55.323Z,11.30
2018-09-26T02:40:23.499Z,11.26
2018-09-26T02:42:51.666Z,11.25
2018-09-26T02:45:19.864Z,11.23
2018-09-26T02:47:48.034Z,11.25
2018-09-26T02:50:16.214Z,11.32
2018-09-26T02:52:44.407Z,11.35
2018-09-26T02:55:12.580Z,11.39
2018-09-26T02:57:40.759Z,11.40
2018-09-26T03:00:08.976Z,11.38
2018-09-26T03:02:37.151Z,11.40
2018-09-26T03:05:05.398Z,11.39
2018-09-26T03:07:33.572Z,11.39
2018-09-26T03:10:01.749Z,11.35
2018-09-26T03:12:29.903Z,11.32
2018-09-26T03:14:58.055Z,11.28
2018-09-26T03:17:26.341Z,11.26
2018-09-26T03:19:54.471Z,11.29
2018-09-26T03:22:22.686Z,11.28
2018-09-26T03:24:50.846Z,11.30
2018-09-26T03:27:19.020Z,11.30
2018-09-26T03:29:47.189Z,11.28
2018-09-26T03:32:15.368Z,11.24
2018-09-26T03:34:43.603Z,11.23
2018-09-26T03:37:11.782Z,11.21
2018-09-26T03:39:39.960Z,11.14
2018-09-26T03:42:08.175Z,11.11
2018-09-26T03:44:36.390Z,11.10
2018-09-26T03:47:04.564Z,11.10
2018-09-26T03:49:32.733Z,11.10
2018-09-26T03:52:00.887Z,11.07
2018-09-26T03:54:29.055Z,11.02
2018-09-26T03:56:57.318Z,10.94
2018-09-26T03:59:25.544Z,10.89
2018-09-26T04:01:53.719Z,10.86
2018-09-26T04:04:21.896Z,10.84
2018-09-26T04:06:50.079Z,10.86
2018-09-26T04:09:18.245Z,10.85
2018-09-26T04:11:46.450Z,10.86
2018-09-26T04:14:14.712Z,10.90
2018-09-26T04:16:42.871Z,10.93
2018-09-26T04:19:11.095Z,10.94
2018-09-26T04:21:39.318Z,10.95
2018-09-26T04:24:07.655Z,10.97
2018-09-26T04:26:35.904Z,10.96
2018-09-26T04:29:04.039Z,10.94
2018-09-26T04:31:32.231Z,10.95
2018-09-26T04:34:00.439Z,11.00
2018-09-26T04:36:28.603Z,11.05
2018-09-26T04:38:56.952Z,11.10
2018-09-26T04:41:24.952Z,11.12
2018-09-26T04:43:53.158Z,11.13
2018-09-26T04:46:21.400Z,11.10
2018-09-26T04:48:49.561Z,11.08
2018-09-26T04:51:17.735Z,11.05
2018-09-26T04:53:45.943Z,11.01
2018-09-26T04:56:14.227Z,11.04
2018-09-26T04:58:42.408Z,11.02
2018-09-26T05:01:10.575Z,11.04
2018-09-26T05:03:38.749Z,11.07
2018-09-26T05:06:06.957Z,11.05
2018-09-26T05:08:35.141Z,11.06
2018-09-26T05:11:03.328Z,11.07
2018-09-26T05:13:31.524Z,11.11
2018-09-26T05:15:59.702Z,11.14
2018-09-26T05:18:27.910Z,11.16
2018-09-26T05:20:56.088Z,11.17
2018-09-26T05:23:24.255Z,11.18
2018-09-26T05:25:52.435Z,11.17
2018-09-26T05:28:20.586Z,11.16
2018-09-26T05:30:48.759Z,11.18
2018-09-26T05:33:17.008Z,11.18
2018-09-26T05:35:45.178Z,11.21
2018-09-26T05:38:13.349Z,11.22
2018-09-26T05:40:41.515Z,11.23
2018-09-26T05:43:09.747Z,11.25
2018-09-26T05:45:37.946Z,11.24
2018-09-26T05:48:06.216Z,11.24
2018-09-26T05:50:34.388Z,11.23
2018-09-26T05:53:02.556Z,11.21
2018-09-26T05:55:30.732Z,11.20
2018-09-26T05:57:58.935Z,11.22
2018-09-26T06:00:27.124Z,11.21
2018-09-26T06:02:55.360Z,11.26
2018-09-26T06:05:23.533Z,11.28
2018-09-26T06:07:51.767Z,11.31
2018-09-26T06:10:26.688Z,11.31
2018-09-26T06:12:54.915Z,11.34
2018-09-26T06:15:23.143Z,11.36
2018-09-26T06:17:52.274Z,11.38
2018-09-26T06:20:20.490Z,11.43
2018-09-26T06:22:48.654Z,11.46
2018-09-26T06:25:16.891Z,11.48
2018-09-26T06:27:45.069Z,11.51
2018-09-26T06:30:13.226Z,11.54
2018-09-26T06:32:41.406Z,11.58
2018-09-26T06:35:09.580Z,11.62
2018-09-26T06:37:37.753Z,11.69
2018-09-26T06:40:06.438Z,11.74
2018-09-26T06:42:34.604Z,11.78
2018-09-26T06:45:02.771Z,11.81
2018-09-26T06:47:31.013Z,11.85
2018-09-26T06:49:59.158Z,11.91
2018-09-26T06:52:27.318Z,11.94
2018-09-26T06:54:55.487Z,11.96
2018-09-26T06:57:23.675Z,12.00
2018-09-26T06:59:51.911Z,12.05
2018-09-26T07:02:20.072Z,12.08
2018-09-26T07:04:48.231Z,12.14
2018-09-26T07:07:16.419Z,12.19
2018-09-26T07:09:44.637Z,12.21
2018-09-26T07:12:12.879Z,12.23
2018-09-26T07:14:40.994Z,12.26
2018-09-26T07:17:09.138Z,12.26
2018-09-26T07:19:37.331Z,12.26
2018-09-26T07:22:05.572Z,12.28
2018-09-26T07:24:33.983Z,12.32
2018-09-26T07:27:02.134Z,12.36
2018-09-26T07:29:30.291Z,12.40
2018-09-26T07:31:58.476Z,12.43
2018-09-26T07:34:31.952Z,12.44
2018-09-26T07:37:00.478Z,12.48
2018-09-26T07:39:28.666Z,12.48
2018-09-26T07:41:56.843Z,12.52
2018-09-26T07:44:25.027Z,12.55
2018-09-26T07:46:53.270Z,12.58
2018-09-26T07:49:21.422Z,12.61
2018-09-26T07:51:49.599Z,12.65
2018-09-26T07:54:18.305Z,12.67
2018-09-26T07:56:46.543Z,12.72
2018-09-26T07:59:14.774Z,12.75
2018-09-26T08:01:42.990Z,12.78
2018-09-26T08:04:11.147Z,12.77
2018-09-26T08:06:39.320Z,12.80
2018-09-26T08:09:08.249Z,12.80
2018-09-26T08:11:36.505Z,12.83
2018-09-26T08:14:04.946Z,12.85
2018-09-26T08:16:33.231Z,12.88
2018-09-26T08:19:01.395Z,12.91
2018-09-26T08:21:29.643Z,12.96
2018-09-26T08:23:57.910Z,13.01
2018-09-26T08:26:26.017Z,13.04
2018-09-26T08:28:54.383Z,13.06
2018-09-26T08:31:22.543Z,13.09
2018-09-26T08:33:50.927Z,13.10
2018-09-26T08:36:19.094Z,13.10
2018-09-26T08:38:47.263Z,13.14
2018-09-26T08:41:15.439Z,13.17
2018-09-26T08:43:43.667Z,13.19
2018-09-26T08:46:11.805Z,13.20
2018-09-26T08:48:39.983Z,13.22
2018-09-26T08:51:08.230Z,13.26
2018-09-26T08:53:36.436Z,13.26
2018-09-26T08:56:04.590Z,13.27
2018-09-26T08:58:32.798Z,13.30
2018-09-26T09:01:00.952Z,13.35
2018-09-26T09:03:29.116Z,13.39
2018-09-26T09:05:57.274Z,13.43
2018-09-26T09:08:25.435Z,13.48
2018-09-26T09:10:53.603Z,13.52
2018-09-26T09:13:21.772Z,13.55
2018-09-26T09:15:49.951Z,13.55
2018-09-26T09:18:18.110Z,13.60
2018-09-26T09:20:46.268Z,13.65
2018-09-26T09:23:14.435Z,13.71
2018-09-26T09:25:42.602Z,13.78
2018-09-26T09:28:10.767Z,13.84
2018-09-26T09:30:39.015Z,13.92
2018-09-26T09:33:07.170Z,13.97
2018-09-26T09:35:35.371Z,14.04
2018-09-26T09:38:03.551Z,14.14
2018-09-26T09:40:31.706Z,14.21
2018-09-26T09:42:59.906Z,14.31
2018-09-26T09:45:28.043Z,14.39
2018-09-26T09:47:56.231Z,14.48
2018-09-26T09:50:24.557Z,14.54
2018-09-26T09:52:52.589Z,14.57
2018-09-26T09:55:20.800Z,14.60
2018-09-26T09:57:49.018Z,14.60
2018-09-26T10:00:17.192Z,14.62
2018-09-26T10:02:45.443Z,14.64
2018-09-26T10:05:13.515Z,14.64
2018-09-26T10:07:41.683Z,14.64
2018-09-26T10:10:09.860Z,14.66
2018-09-26T10:12:38.023Z,14.68
2018-09-26T10:15:06.200Z,14.68
2018-09-26T10:17:34.384Z,14.73
2018-09-26T10:20:02.527Z,14.84
2018-09-26T10:22:30.764Z,14.98
2018-09-26T10:24:58.981Z,15.14
2018-09-26T10:27:27.087Z,15.33
2018-09-26T10:29:55.248Z,15.52
2018-09-26T10:32:23.519Z,15.67
2018-09-26T10:34:51.668Z,15.81
2018-09-26T10:37:19.802Z,15.97
2018-09-26T10:39:47.958Z,16.09
2018-09-26T10:42:16.163Z,16.18
2018-09-26T10:44:44.330Z,16.27
2018-09-26T10:47:12.498Z,16.31
2018-09-26T10:49:40.681Z,16.37
2018-09-26T10:52:08.823Z,16.47
2018-09-26T10:54:37.007Z,16.60
2018-09-26T10:57:05.174Z,16.76
2018-09-26T10:59:33.351Z,16.92
2018-09-26T11:02:01.588Z,17.06
2018-09-26T11:04:29.686Z,17.20
2018-09-26T11:06:57.848Z,17.35
2018-09-26T11:09:26.060Z,17.54
2018-09-26T11:11:54.212Z,17.68
2018-09-26T11:14:22.467Z,17.81
2018-09-26T11:16:50.569Z,17.91
2018-09-26T11:19:18.877Z,17.89
2018-09-26T11:21:47.077Z,17.91
2018-09-26T11:24:15.242Z,17.98
2018-09-26T11:26:43.467Z,18.07
2018-09-26T11:29:11.571Z,18.17
2018-09-26T11:31:39.783Z,18.28
2018-09-26T11:34:08.019Z,18.38
2018-09-26T11:36:36.199Z,18.51
2018-09-26T11:39:05.493Z,18.60
2018-09-26T11:41:33.664Z,18.66
2018-09-26T11:44:01.838Z,18.74
2018-09-26T11:46:30.043Z,18.87
2018-09-26T11:48:58.232Z,19.03
2018-09-26T11:51:26.399Z,19.11
2018-09-26T11:53:54.581Z,19.22
2018-09-26T11:56:22.800Z,19.32
2018-09-26T11:58:51.004Z,19.47
2018-09-26T12:01:19.179Z,19.57
2018-09-26T12:03:47.334Z,19.64
2018-09-26T12:06:15.531Z,19.61
2018-09-26T12:08:49.939Z,19.68
2018-09-26T12:11:18.126Z,19.74
2018-09-26T12:13:46.318Z,19.85
2018-09-26T12:16:14.496Z,20.05
2018-09-26T12:18:42.624Z,20.29
2018-09-26T12:21:10.791Z,20.51
2018-09-26T12:23:38.997Z,20.74
2018-09-26T12:26:07.250Z,21.01
2018-09-26T12:28:35.415Z,21.32
2018-09-26T12:31:03.591Z,21.60
2018-09-26T12:33:31.772Z,21.89
2018-09-26T12:35:59.958Z,22.15
2018-09-26T12:38:28.132Z,22.28
2018-09-26T12:40:56.307Z,22.43
2018-09-26T12:43:24.524Z,22.56
2018-09-26T12:45:52.692Z,22.74
2018-09-26T12:48:20.901Z,22.97
2018-09-26T12:50:49.045Z,23.29
2018-09-26T12:53:17.275Z,23.63
2018-09-26T12:55:45.459Z,24.02
2018-09-26T12:58:13.730Z,24.19
2018-09-26T13:00:41.921Z,24.21
2018-09-26T13:03:10.063Z,24.30
2018-09-26T13:05:38.247Z,24.44
2018-09-26T13:08:06.656Z,24.63
2018-09-26T13:10:34.800Z,24.80
2018-09-26T13:13:02.976Z,24.52
2018-09-26T13:15:31.146Z,23.97
2018-09-26T13:17:59.321Z,23.46
2018-09-26T13:20:27.683Z,23.10
2018-09-26T13:22:55.785Z,23.01
2018-09-26T13:25:24.014Z,22.92
2018-09-26T13:27:52.152Z,22.64
2018-09-26T13:30:20.381Z,22.26
2018-09-26T13:32:48.532Z,21.90
2018-09-26T13:35:16.738Z,21.65
2018-09-26T13:37:44.943Z,21.36
2018-09-26T13:40:13.174Z,21.15
2018-09-26T13:42:41.332Z,21.19
2018-09-26T13:45:09.563Z,21.11
2018-09-26T13:47:37.768Z,21.08
2018-09-26T13:50:06.040Z,21.54
2018-09-26T13:52:34.148Z,21.78
2018-09-26T13:55:02.411Z,21.59
2018-09-26T13:57:30.646Z,21.33
2018-09-26T13:59:58.860Z,21.13
2018-09-26T14:02:27.415Z,21.15
2018-09-26T14:04:55.482Z,21.23
2018-09-26T14:07:23.662Z,21.12
2018-09-26T14:09:51.870Z,20.90
2018-09-26T14:12:20.079Z,20.70
2018-09-26T14:14:48.219Z,20.54
2018-09-26T14:17:16.417Z,20.39
2018-09-26T14:19:44.603Z,20.27
2018-09-26T14:22:12.912Z,20.17
2018-09-26T14:24:41.094Z,20.14
2018-09-26T14:27:09.348Z,20.10
2018-09-26T14:29:37.582Z,20.07
2018-09-26T14:32:05.892Z,20.06
2018-09-26T14:34:34.072Z,20.05
2018-09-26T14:37:02.327Z,20.04
2018-09-26T14:39:30.640Z,20.02
2018-09-26T14:41:58.694Z,19.98
2018-09-26T14:44:27.025Z,19.86
2018-09-26T14:46:55.143Z,19.80
2018-09-26T14:49:23.459Z,19.75
2018-09-26T14:51:51.627Z,19.70
2018-09-26T14:54:19.804Z,19.62
2018-09-26T14:56:48.086Z,19.51
2018-09-26T14:59:16.264Z,19.48
2018-09-26T15:01:44.450Z,19.41
2018-09-26T15:04:12.754Z,19.38
2018-09-26T15:06:40.822Z,19.37
2018-09-26T15:09:08.995Z,19.35
2018-09-26T15:11:37.165Z,19.28
2018-09-26T15:14:05.373Z,19.26
2018-09-26T15:16:33.531Z,19.25
2018-09-26T15:19:01.800Z,19.22
2018-09-26T15:21:30.069Z,19.20
2018-09-26T15:23:58.302Z,19.21
2018-09-26T15:26:26.590Z,19.19
2018-09-26T15:28:54.719Z,19.13
2018-09-26T15:31:22.884Z,19.10
2018-09-26T15:33:51.059Z,19.09
2018-09-26T15:36:19.339Z,19.10
2018-09-26T15:38:47.435Z,19.08
2018-09-26T15:41:15.682Z,19.07
2018-09-26T15:43:43.859Z,19.03
2018-09-26T15:46:12.129Z,18.98
2018-09-26T15:48:40.303Z,18.97
2018-09-26T15:51:08.422Z,18.96
2018-09-26T15:53:36.742Z,18.96
2018-09-26T15:56:05.057Z,18.98
2018-09-26T15:58:33.170Z,19.05
2018-09-26T16:01:01.348Z,19.10
2018-09-26T16:03:29.532Z,19.06
2018-09-26T16:05:57.691Z,19.02
2018-09-26T16:08:25.997Z,18.94
2018-09-26T16:10:54.041Z,18.87
2018-09-26T16:13:22.208Z,18.84
2018-09-26T16:15:50.376Z,18.80
2018-09-26T16:18:18.620Z,18.77
2018-09-26T16:20:46.723Z,18.71
2018-09-26T16:23:14.955Z,18.66
2018-09-26T16:25:43.138Z,18.62
2018-09-26T16:28:11.327Z,18.58
2018-09-26T16:30:39.471Z,18.53
2018-09-26T16:33:07.747Z,18.49
2018-09-26T16:35:35.947Z,18.43
2018-09-26T16:38:04.132Z,18.42
2018-09-26T16:40:32.325Z,18.39
2018-09-26T16:43:00.530Z,18.33
2018-09-26T16:45:28.871Z,18.30
2018-09-26T16:47:57.119Z,18.26
2018-09-26T16:50:25.322Z,18.22
2018-09-26T16:52:53.467Z,18.16
2018-09-26T16:55:21.647Z,18.11
2018-09-26T16:57:49.811Z,18.06
2018-09-26T17:00:18.043Z,17.98
2018-09-26T17:02:46.183Z,17.92
2018-09-26T17:05:14.374Z,17.85
2018-09-26T17:07:42.543Z,17.77
2018-09-26T17:10:10.759Z,17.69
2018-09-26T17:12:38.992Z,17.62
2018-09-26T17:15:07.246Z,17.52
2018-09-26T17:17:35.414Z,17.45
2018-09-26T17:20:03.682Z,17.37
2018-09-26T17:22:31.846Z,17.30
2018-09-26T17:25:00.088Z,17.23
2018-09-26T17:27:28.242Z,17.16
2018-09-26T17:29:56.443Z,17.07
2018-09-26T17:32:25.120Z,16.99
2018-09-26T17:34:53.165Z,16.92
2018-09-26T17:37:21.335Z,16.85
2018-09-26T17:39:49.495Z,16.80
2018-09-26T17:42:17.919Z,16.77
2018-09-26T17:44:46.183Z,16.72
2018-09-26T17:47:15.040Z,16.67
2018-09-26T17:49:43.259Z,16.60
2018-09-26T17:52:11.832Z,16.54
2018-09-26T17:54:40.060Z,16.49
2018-09-26T17:57:08.471Z,16.47
2018-09-26T17:59:36.812Z,16.45
2018-09-26T18:02:05.043Z,16.39
2018-09-26T18:04:33.440Z,16.37
2018-09-26T18:07:03.546Z,16.32
2018-09-26T18:09:32.206Z,16.28
2018-09-26T18:12:01.030Z,16.23
2018-09-26T18:14:41.361Z,16.16
2018-09-26T18:17:10.795Z,16.11
2018-09-26T18:19:39.424Z,16.04
2018-09-26T18:22:09.197Z,16.01
2018-09-26T18:24:37.853Z,15.96
2018-09-26T18:27:07.281Z,15.91
2018-09-26T18:29:36.462Z,15.85
2018-09-26T18:32:04.881Z,15.81
2018-09-26T18:34:33.153Z,15.80
2018-09-26T18:37:02.158Z,15.77
2018-09-26T18:39:30.979Z,15.76
2018-09-26T18:41:59.461Z,15.78
2018-09-26T18:44:27.900Z,15.78
2018-09-26T18:46:56.368Z,15.78
2018-09-26T18:49:24.663Z,15.74
2018-09-26T18:51:53.021Z,15.68
2018-09-26T18:54:21.493Z,15.64
2018-09-26T18:56:49.988Z,15.57
2018-09-26T18:59:18.557Z,15.52
2018-09-26T19:01:46.885Z,15.52
2018-09-26T19:04:15.257Z,15.55
2018-09-26T19:06:43.663Z,15.55
2018-09-26T19:09:12.277Z,15.49
2018-09-26T19:11:40.563Z,15.43
2018-09-26T19:14:08.849Z,15.40
2018-09-26T19:16:37.028Z,15.41
2018-09-26T19:19:05.613Z,15.42
2018-09-26T19:21:33.981Z,15.43
2018-09-26T19:24:02.105Z,15.44
2018-09-26T19:26:32.435Z,15.44
2018-09-26T19:29:00.795Z,15.44
2018-09-26T19:31:28.995Z,15.43
2018-09-26T19:33:57.270Z,15.39
2018-09-26T19:36:25.762Z,15.36
2018-09-26T19:38:53.930Z,15.33
2018-09-26T19:41:22.023Z,15.31
2018-09-26T19:43:50.258Z,15.31
2018-09-26T19:46:18.423Z,15.30
2018-09-26T19:48:46.571Z,15.29
2018-09-26T19:51:14.731Z,15.29
2018-09-26T19:53:42.887Z,15.28
2018-09-26T19:56:11.175Z,15.22
2018-09-26T19:58:45.843Z,15.20
2018-09-26T20:01:13.994Z,15.19
2018-09-26T20:03:42.146Z,15.18
2018-09-26T20:06:10.310Z,15.17
2018-09-26T20:08:38.472Z,15.16
2018-09-26T20:11:07.455Z,15.15
2018-09-26T20:13:35.612Z,15.15
2018-09-26T20:16:03.809Z,15.14
2018-09-26T20:18:31.971Z,15.14
2018-09-26T20:21:00.124Z,15.13
2018-09-26T20:23:28.335Z,15.11
2018-09-26T20:25:56.471Z,15.11
2018-09-26T20:28:24.682Z,15.09
2018-09-26T20:30:52.878Z,15.07
2018-09-26T20:33:20.999Z,15.05
2018-09-26T20:35:49.160Z,15.03
2018-09-26T20:38:17.386Z,15.01
2018-09-26T20:40:45.547Z,14.98
2018-09-26T20:43:13.786Z,14.95
2018-09-26T20:45:41.952Z,14.88
2018-09-26T20:48:10.104Z,14.78
2018-09-26T20:50:38.274Z,14.73
2018-09-26T20:53:06.769Z,14.69
2018-09-26T20:55:35.015Z,14.61
2018-09-26T20:58:03.180Z,14.54
2018-09-26T21:00:31.425Z,14.49
2018-09-26T21:02:59.543Z,14.49
2018-09-26T21:05:27.722Z,14.44
2018-09-26T21:07:55.882Z,14.41
2018-09-26T21:10:24.106Z,14.42
2018-09-26T21:12:52.257Z,14.40
2018-09-26T21:15:20.427Z,14.39
2018-09-26T21:17:48.685Z,14.40
2018-09-26T21:20:16.812Z,14.42
2018-09-26T21:22:44.963Z,14.42
2018-09-26T21:25:13.139Z,14.39
2018-09-26T21:27:41.320Z,14.38
2018-09-26T21:30:09.471Z,14.34
2018-09-26T21:32:37.622Z,14.32
2018-09-26T21:35:05.798Z,14.29
2018-09-26T21:37:33.975Z,14.30
2018-09-26T21:40:02.190Z,14.31
2018-09-26T21:42:30.591Z,14.28
2018-09-26T21:44:58.747Z,14.25
2018-09-26T21:47:26.922Z,14.24
2018-09-26T21:49:55.137Z,14.26
2018-09-26T21:52:23.291Z,14.25
2018-09-26T21:54:51.534Z,14.22
2018-09-26T21:57:19.700Z,14.21
2018-09-26T21:59:47.885Z,14.21
2018-09-26T22:02:16.099Z,14.20
2018-09-26T22:04:44.323Z,14.19
2018-09-26T22:07:12.600Z,14.16
2018-09-26T22:09:40.769Z,14.13
2018-09-26T22:12:08.922Z,14.11
2018-09-26T22:14:37.107Z,14.05
2018-09-26T22:17:05.292Z,14.05
2018-09-26T22:19:33.453Z,14.03
2018-09-26T22:22:01.607Z,14.01
2018-09-26T22:24:29.758Z,13.99
2018-09-26T22:26:57.927Z,14.01
2018-09-26T22:29:26.083Z,14.00
2018-09-26T22:31:54.254Z,13.97
2018-09-26T22:34:22.420Z,13.95
2018-09-26T22:36:50.582Z,13.92
2018-09-26T22:39:18.783Z,13.90
2018-09-26T22:41:46.958Z,13.87
2018-09-26T22:44:15.123Z,13.78
2018-09-26T22:46:43.287Z,13.72
2018-09-26T22:49:11.463Z,13.67
2018-09-26T22:51:39.651Z,13.62
2018-09-26T22:54:07.824Z,13.55
2018-09-26T22:56:35.968Z,13.58
2018-09-26T22:59:04.131Z,13.62
2018-09-26T23:01:39.039Z,13.63
2018-09-26T23:04:07.447Z,13.65
2018-09-26T23:06:35.617Z,13.65
2018-09-26T23:09:04.631Z,13.63
2018-09-26T23:11:32.786Z,13.58
2018-09-26T23:14:00.950Z,13.56
2018-09-26T23:16:29.116Z,13.56
2018-09-26T23:18:57.301Z,13.56
2018-09-26T23:21:25.467Z,13.55
2018-09-26T23:23:53.632Z,13.56
2018-09-26T23:26:21.782Z,13.55
2018-09-26T23:28:49.952Z,13.53
2018-09-26T23:31:18.124Z,13.52
2018-09-26T23:33:46.271Z,13.51
2018-09-26T23:36:14.442Z,13.50
2018-09-26T23:38:42.630Z,13.50
2018-09-26T23:41:10.888Z,13.49
2018-09-26T23:43:39.044Z,13.46
2018-09-26T23:46:07.250Z,13.43
2018-09-26T23:48:35.411Z,13.40
2018-09-26T23:51:03.598Z,13.34
2018-09-26T23:53:31.786Z,13.32
2018-09-26T23:55:59.952Z,13.34
2018-09-26T23:58:28.111Z,13.35
